Time,TemperatureF,DewpointF,PressureIn,WindDirection,WindDirectionDegrees,WindSpeedMPH,WindSpeedGustMPH,Humidity,HourlyPrecipIn,Conditions,Clouds,dailyrainin,SolarRadiationWatts/m^2,SoftwareType,DateUTC
2013-08-05 00:02:00,55.0,54.0,30.04,West,278,1.0,4.0,96,0.00,,,0.00,0.000000,,2013-08-05 07:02:00,
2013-08-05 00:12:00,55.0,54.0,30.04,West,278,1.0,4.0,96,0.00,,,0.00,0.000000,,2013-08-05 07:12:00,
2013-08-05 00:22:00,55.0,54.0,30.04,WSW,240,0.0,4.0,96,0.00,,,0.00,0.000000,,2013-08-05 07:22:00,
2013-08-05 00:32:00,55.0,54.0,30.05,SW,217,0.0,3.0,96,0.00,,,0.00,0.000000,,2013-08-05 07:32:00,
2013-08-05 00:43:00,55.0,54.0,30.05,SW,217,0.0,3.0,96,0.00,,,0.00,0.000000,,2013-08-05 07:43:00,
2013-08-05 00:52:00,55.0,54.0,30.04,West,276,2.0,7.0,96,0.00,,,0.00,0.000000,,2013-08-05 07:52:00,
2013-08-05 01:02:00,55.0,54.0,30.05,SSW,213,0.0,3.0,96,0.00,,,0.00,0.000000,,2013-08-05 08:02:00,
2013-08-05 01:11:00,55.0,54.0,30.05,SSW,213,0.0,3.0,96,0.00,,,0.00,0.000000,,2013-08-05 08:11:00,
2013-08-05 01:22:00,54.0,53.0,30.05,SW,217,0.0,0.0,96,0.00,,,0.00,0.000000,,2013-08-05 08:22:00,
2013-08-05 01:53:00,54.0,53.0,30.04,WSW,250,0.0,2.0,96,0.00,,,0.00,0.000000,,2013-08-05 08:53:00,
2013-08-05 02:02:00,53.0,52.0,30.04,West,271,2.0,4.0,96,0.00,,,0.00,0.000000,,2013-08-05 09:02:00,
2013-08-05 02:12:00,53.0,52.0,30.04,West,271,2.0,4.0,96,0.00,,,0.00,0.000000,,2013-08-05 09:12:00,
2013-08-05 02:23:00,53.0,52.0,30.04,ESE,123,0.0,2.0,96,0.00,,,0.00,0.000000,,2013-08-05 09:23:00,
2013-08-05 02:53:00,53.0,52.0,30.04,SSW,199,0.0,2.0,96,0.00,,,0.00,0.000000,,2013-08-05 09:53:00,
2013-08-05 03:02:00,53.0,52.0,30.04,SSW,206,0.0,0.0,97,0.00,,,0.00,0.000000,,2013-08-05 10:02:00,
2013-08-05 03:12:00,53.0,52.0,30.04,SSW,206,0.0,0.0,97,0.00,,,0.00,0.000000,,2013-08-05 10:12:00,
2013-08-05 03:32:00,53.0,52.0,30.04,WNW,284,0.0,3.0,97,0.00,,,0.00,0.000000,,2013-08-05 10:32:00,
2013-08-05 03:43:00,53.0,52.0,30.04,West,271,0.0,2.0,97,0.00,,,0.00,0.000000,,2013-08-05 10:43:00,
2013-08-05 03:53:00,53.0,52.0,30.04,NNW,331,0.0,5.0,96,0.00,,,0.00,0.000000,,2013-08-05 10:53:00,
2013-08-05 04:02:00,53.0,52.0,30.03,West,274,0.0,3.0,97,0.00,,,0.00,0.000000,,2013-08-05 11:02:00,
2013-08-05 04:12:00,53.0,52.0,30.03,West,274,0.0,3.0,97,0.00,,,0.00,0.000000,,2013-08-05 11:12:00,
2013-08-05 04:32:00,53.0,52.0,30.04,NNW,332,0.0,5.0,97,0.00,,,0.00,0.000000,,2013-08-05 11:32:00,
2013-08-05 04:44:00,53.0,52.0,30.03,NNW,331,0.0,1.0,97,0.00,,,0.00,0.000000,,2013-08-05 11:44:00,
2013-08-05 04:58:00,53.0,52.0,30.04,NNW,331,0.0,1.0,97,0.00,,,0.00,0.000000,,2013-08-05 11:58:00,
2013-08-05 05:23:00,53.0,52.0,30.04,North,355,0.0,1.0,97,0.00,,,0.00,0.000000,,2013-08-05 12:23:00,
2013-08-05 05:57:00,53.0,52.0,30.04,North,355,0.0,0.0,97,0.00,,,0.00,0.000000,,2013-08-05 12:57:00,
2013-08-05 06:12:00,53.0,52.0,30.04,North,355,0.0,0.0,97,0.00,,,0.00,0.000000,,2013-08-05 13:12:00,
2013-08-05 06:42:00,53.0,52.0,30.05,North,355,0.0,1.0,97,0.00,,,0.00,0.000000,,2013-08-05 13:42:00,
2013-08-05 06:54:00,53.0,52.0,30.05,SW,234,0.0,3.0,97,0.00,,,0.00,5.000000,,2013-08-05 13:54:00,
2013-08-05 07:02:00,53.0,52.0,30.06,West,273,0.0,3.0,97,0.00,,,0.00,11.000000,,2013-08-05 14:02:00,
2013-08-05 07:12:00,53.0,52.0,30.06,West,273,0.0,3.0,97,0.00,,,0.00,11.000000,,2013-08-05 14:12:00,
2013-08-05 07:32:00,53.0,52.0,30.05,SSW,211,0.0,4.0,97,0.00,,,0.00,18.000000,,2013-08-05 14:32:00,
2013-08-05 07:43:00,53.0,52.0,30.05,WSW,254,0.0,0.0,97,0.00,,,0.00,32.000000,,2013-08-05 14:43:00,
2013-08-05 07:53:00,53.0,52.0,30.06,WSW,254,0.0,0.0,97,0.00,,,0.00,42.000000,,2013-08-05 14:53:00,
2013-08-05 08:01:00,53.0,52.0,30.06,WSW,254,0.0,0.0,97,0.00,,,0.00,42.000000,,2013-08-05 15:01:00,
2013-08-05 08:12:00,53.0,52.0,30.06,WSW,254,0.0,0.0,97,0.00,,,0.00,39.000000,,2013-08-05 15:12:00,
2013-08-05 08:43:00,54.0,53.0,30.06,WSW,242,0.0,2.0,97,0.00,,,0.00,63.000000,,2013-08-05 15:43:00,
2013-08-05 08:58:00,54.0,53.0,30.06,South,173,0.0,3.0,97,0.00,,,0.00,79.000000,,2013-08-05 15:58:00,
2013-08-05 09:12:00,54.0,53.0,30.06,NW,307,2.0,5.0,97,0.00,,,0.00,120.000000,,2013-08-05 16:12:00,
2013-08-05 09:42:00,54.0,53.0,30.07,West,267,1.0,2.0,97,0.01,,,0.01,139.000000,,2013-08-05 16:42:00,
2013-08-05 09:58:00,54.0,53.0,30.07,West,277,2.0,4.0,97,0.02,,,0.02,137.000000,,2013-08-05 16:58:00,
2013-08-05 10:12:00,54.0,53.0,30.07,NW,311,1.0,5.0,97,0.02,,,0.02,176.000000,,2013-08-05 17:12:00,
2013-08-05 10:32:00,54.0,53.0,30.07,NW,315,3.0,10.0,97,0.02,,,0.02,216.000000,,2013-08-05 17:32:00,
2013-08-05 10:43:00,54.0,53.0,30.07,WNW,298,2.0,7.0,97,0.01,,,0.02,234.000000,,2013-08-05 17:43:00,
2013-08-05 10:57:00,55.0,54.0,30.07,NW,305,2.0,7.0,97,0.00,,,0.02,244.000000,,2013-08-05 17:57:00,
2013-08-05 11:12:00,55.0,54.0,30.08,NW,309,2.0,7.0,96,0.00,,,0.02,257.000000,,2013-08-05 18:12:00,
2013-08-05 11:43:00,55.0,54.0,30.07,NW,309,2.0,6.0,96,0.00,,,0.02,385.000000,,2013-08-05 18:43:00,
2013-08-05 11:54:00,56.0,55.0,30.07,WSW,254,1.0,7.0,96,0.00,,,0.02,443.000000,,2013-08-05 18:54:00,
2013-08-05 12:02:00,56.0,55.0,30.07,WSW,254,1.0,7.0,96,0.00,,,0.02,443.000000,,2013-08-05 19:02:00,
2013-08-05 12:12:00,57.0,55.0,30.07,SW,222,2.0,5.0,94,0.00,,,0.02,369.000000,,2013-08-05 19:12:00,
2013-08-05 12:22:00,57.0,55.0,30.07,WSW,238,3.0,6.0,94,0.00,,,0.02,450.000000,,2013-08-05 19:22:00,
2013-08-05 12:32:00,57.0,55.0,30.07,WNW,290,1.0,6.0,94,0.00,,,0.02,464.000000,,2013-08-05 19:32:00,
2013-08-05 12:45:00,57.0,55.0,30.07,WNW,290,1.0,6.0,94,0.00,,,0.02,464.000000,,2013-08-05 19:45:00,
2013-08-05 12:55:00,57.0,55.0,30.07,SW,233,4.0,8.0,93,0.00,,,0.02,548.000000,,2013-08-05 19:55:00,
2013-08-05 13:02:00,58.0,56.0,30.07,WSW,256,3.0,5.0,92,0.00,,,0.02,568.000000,,2013-08-05 20:02:00,
2013-08-05 13:12:00,58.0,56.0,30.07,WSW,256,3.0,5.0,92,0.00,,,0.02,568.000000,,2013-08-05 20:12:00,
2013-08-05 13:32:00,58.0,55.0,30.06,WSW,237,3.0,6.0,91,0.00,,,0.02,631.000000,,2013-08-05 20:32:00,
2013-08-05 13:44:00,58.0,55.0,30.07,SSW,201,4.0,8.0,90,0.00,,,0.02,577.000000,,2013-08-05 20:44:00,
2013-08-05 13:58:00,58.0,55.0,30.07,WSW,238,4.0,7.0,90,0.00,,,0.02,510.000000,,2013-08-05 20:58:00,
2013-08-05 14:12:00,58.0,55.0,30.06,WSW,247,3.0,6.0,91,0.00,,,0.02,566.000000,,2013-08-05 21:12:00,
2013-08-05 14:32:00,58.0,55.0,30.06,SSW,205,2.0,6.0,90,0.00,,,0.02,459.000000,,2013-08-05 21:32:00,
2013-08-05 14:43:00,58.0,55.0,30.06,SSW,205,2.0,6.0,90,0.00,,,0.02,459.000000,,2013-08-05 21:43:00,
2013-08-05 14:53:00,58.0,55.0,30.06,SSW,202,2.0,7.0,90,0.00,,,0.02,446.000000,,2013-08-05 21:53:00,
2013-08-05 15:12:00,58.0,55.0,30.06,SW,223,2.0,10.0,89,0.00,,,0.02,533.000000,,2013-08-05 22:12:00,
2013-08-05 15:22:00,59.0,55.0,30.05,SE,133,3.0,7.0,86,0.00,,,0.02,413.000000,,2013-08-05 22:22:00,
2013-08-05 15:32:00,60.0,56.0,30.05,South,170,3.0,7.0,86,0.00,,,0.02,475.000000,,2013-08-05 22:32:00,
2013-08-05 15:43:00,60.0,56.0,30.05,South,170,3.0,7.0,86,0.00,,,0.02,475.000000,,2013-08-05 22:43:00,
2013-08-05 15:53:00,60.0,56.0,30.04,SSE,168,2.0,10.0,87,0.00,,,0.02,592.000000,,2013-08-05 22:53:00,
2013-08-05 16:02:00,60.0,56.0,30.04,SSE,168,2.0,10.0,87,0.00,,,0.02,592.000000,,2013-08-05 23:02:00,
2013-08-05 16:12:00,61.0,56.0,30.04,SSW,203,3.0,10.0,85,0.00,,,0.02,666.000000,,2013-08-05 23:12:00,
2013-08-05 16:32:00,61.0,56.0,30.03,WSW,254,2.0,7.0,85,0.00,,,0.02,823.000000,,2013-08-05 23:32:00,
2013-08-05 16:43:00,60.0,55.0,30.03,ESE,120,3.0,12.0,84,0.00,,,0.02,724.000000,,2013-08-05 23:43:00,
2013-08-05 17:02:00,60.0,55.0,30.03,SW,227,2.0,8.0,85,0.00,,,0.02,352.000000,,2013-08-06 00:02:00,
2013-08-05 17:12:00,60.0,55.0,30.03,SW,227,2.0,8.0,85,0.00,,,0.02,352.000000,,2013-08-06 00:12:00,
2013-08-05 17:43:00,59.0,54.0,30.02,SSE,162,5.0,11.0,85,0.00,,,0.02,283.000000,,2013-08-06 00:43:00,
2013-08-05 17:57:00,59.0,55.0,30.02,ESE,108,1.0,7.0,86,0.00,,,0.02,350.000000,,2013-08-06 00:57:00,
2013-08-05 18:12:00,59.0,55.0,30.02,SSE,162,4.0,9.0,86,0.00,,,0.02,274.000000,,2013-08-06 01:12:00,
2013-08-05 18:23:00,58.0,54.0,30.01,South,184,0.0,7.0,87,0.00,,,0.02,213.000000,,2013-08-06 01:23:00,
2013-08-05 18:33:00,57.0,54.0,30.01,South,190,2.0,8.0,89,0.00,,,0.02,211.000000,,2013-08-06 01:33:00,
2013-08-05 18:44:00,57.0,54.0,30.01,South,190,2.0,8.0,89,0.00,,,0.02,211.000000,,2013-08-06 01:44:00,
2013-08-05 18:58:00,57.0,54.0,30.01,East,83,1.0,9.0,90,0.00,,,0.02,128.000000,,2013-08-06 01:58:00,
2013-08-05 19:12:00,57.0,54.0,30.01,SSW,212,1.0,6.0,89,0.00,,,0.02,90.000000,,2013-08-06 02:12:00,
2013-08-05 19:32:00,56.0,53.0,30.01,South,169,2.0,6.0,90,0.00,,,0.02,60.000000,,2013-08-06 02:32:00,
2013-08-05 19:42:00,56.0,53.0,30.01,SSW,211,1.0,4.0,91,0.00,,,0.02,44.000000,,2013-08-06 02:42:00,
2013-08-05 19:52:00,56.0,53.0,30.01,SE,136,4.0,6.0,91,0.00,,,0.02,32.000000,,2013-08-06 02:52:00,
2013-08-05 20:01:00,55.0,52.0,30.01,WSW,254,2.0,6.0,91,0.00,,,0.02,21.000000,,2013-08-06 03:01:00,
2013-08-05 20:12:00,55.0,52.0,30.01,WSW,254,2.0,6.0,91,0.00,,,0.02,21.000000,,2013-08-06 03:12:00,
2013-08-05 20:22:00,55.0,53.0,30.01,South,190,1.0,3.0,92,0.00,,,0.02,12.000000,,2013-08-06 03:22:00,
2013-08-05 20:32:00,55.0,53.0,30.01,SSE,159,1.0,5.0,92,0.00,,,0.02,5.000000,,2013-08-06 03:32:00,
2013-08-05 20:52:00,55.0,53.0,30.02,SE,144,0.0,6.0,92,0.00,,,0.02,0.000000,,2013-08-06 03:52:00,
2013-08-05 21:01:00,55.0,53.0,30.01,SSW,207,1.0,4.0,93,0.00,,,0.02,0.000000,,2013-08-06 04:01:00,
2013-08-05 21:11:00,55.0,53.0,30.01,SSW,207,1.0,4.0,93,0.00,,,0.02,0.000000,,2013-08-06 04:11:00,
2013-08-05 21:32:00,54.0,52.0,30.02,SSW,211,2.0,5.0,93,0.00,,,0.02,0.000000,,2013-08-06 04:32:00,
2013-08-05 21:44:00,54.0,52.0,30.02,SSW,211,2.0,5.0,93,0.00,,,0.02,0.000000,,2013-08-06 04:44:00,
2013-08-05 21:53:00,54.0,52.0,30.02,South,190,0.0,3.0,93,0.00,,,0.02,0.000000,,2013-08-06 04:53:00,
2013-08-05 22:02:00,54.0,52.0,30.02,South,190,0.0,3.0,93,0.00,,,0.02,0.000000,,2013-08-06 05:02:00,
2013-08-05 22:11:00,54.0,52.0,30.02,WSW,242,1.0,4.0,93,0.00,,,0.02,0.000000,,2013-08-06 05:11:00,
2013-08-05 22:21:00,54.0,52.0,30.02,WSW,239,0.0,7.0,93,0.00,,,0.02,0.000000,,2013-08-06 05:21:00,
2013-08-05 22:32:00,54.0,52.0,30.02,SSE,163,1.0,5.0,94,0.00,,,0.02,0.000000,,2013-08-06 05:32:00,
2013-08-05 22:43:00,54.0,52.0,30.02,SSE,163,1.0,5.0,94,0.00,,,0.02,0.000000,,2013-08-06 05:43:00,
2013-08-05 22:53:00,54.0,52.0,30.02,South,183,0.0,0.0,94,0.00,,,0.02,0.000000,,2013-08-06 05:53:00,
2013-08-05 23:01:00,54.0,52.0,30.02,West,269,0.0,1.0,94,0.00,,,0.02,0.000000,,2013-08-06 06:01:00,
2013-08-05 23:11:00,54.0,52.0,30.02,West,269,0.0,1.0,94,0.00,,,0.02,0.000000,,2013-08-06 06:11:00,
2013-08-05 23:32:00,53.0,51.0,30.02,South,170,0.0,4.0,94,0.00,,,0.02,0.000000,,2013-08-06 06:32:00,
2013-08-05 23:43:00,53.0,51.0,30.02,ESE,121,0.0,3.0,94,0.00,,,0.02,0.000000,,2013-08-06 06:43:00,
2013-08-05 23:52:00,53.0,51.0,30.02,SSW,196,0.0,4.0,94,0.00,,,0.02,0.000000,,2013-08-06 06:52:00,